createdAt,value
2022-10-01T00:00:35.771Z,33.10
2022-10-01T00:03:00.307Z,32.30
2022-10-01T00:04:10.006Z,33.40
2022-10-01T00:05:19.077Z,32.35
2022-10-01T00:07:44.761Z,24.72
2022-10-01T00:10:11.967Z,21.20
2022-10-01T00:11:24.411Z,22.55
2022-10-01T00:13:52.221Z,20.98
2022-10-01T00:15:05.979Z,20.08
2022-10-01T00:16:17.395Z,20.75
2022-10-01T00:18:45.898Z,20.52
2022-10-01T00:19:54.954Z,20.08
2022-10-01T00:22:32.625Z,20.27
2022-10-01T00:23:43.052Z,19.65
2022-10-01T00:24:52.687Z,19.53
2022-10-01T00:27:36.416Z,20.15
2022-10-01T00:30:06.662Z,23.80
2022-10-01T00:32:35.222Z,25.78
2022-10-01T00:35:00.230Z,27.90
2022-10-01T00:36:11.763Z,29.45
2022-10-01T00:38:39.863Z,30.83
2022-10-01T00:39:49.501Z,31.90
2022-10-01T00:40:59.030Z,24.87
2022-10-01T00:42:20.034Z,23.27
2022-10-01T00:44:48.562Z,22.07
2022-10-01T00:49:02.621Z,20.47
2022-10-01T00:51:47.629Z,18.37
2022-10-01T00:54:27.064Z,23.98
2022-10-01T00:55:46.223Z,24.25
2022-10-01T00:56:58.609Z,26.53
2022-10-01T00:58:10.807Z,27.93
2022-10-01T01:00:39.135Z,30.70
2022-10-01T01:03:06.268Z,31.37
2022-10-01T01:04:16.613Z,34.35
2022-10-01T01:06:42.703Z,32.65
2022-10-01T01:07:53.506Z,33.85
2022-10-01T01:09:03.832Z,34.50
2022-10-01T01:13:23.702Z,34.82
2022-10-01T01:14:42.822Z,34.82
2022-10-01T01:15:56.157Z,34.90
2022-10-01T01:18:32.099Z,35.58
2022-10-01T01:27:45.496Z,33.95
2022-10-01T01:30:17.176Z,23.52
2022-10-01T01:32:55.464Z,22.12
2022-10-01T01:35:30.588Z,22.18
2022-10-01T01:38:01.779Z,27.03
2022-10-01T01:39:15.464Z,28.95
2022-10-01T01:41:49.760Z,30.98
2022-10-01T01:43:01.976Z,31.93
2022-10-01T01:45:31.077Z,25.83
2022-10-01T01:48:02.752Z,25.70
2022-10-01T01:50:35.197Z,21.30
2022-10-01T01:53:19.716Z,18.35
2022-10-01T01:56:50.803Z,16.80
2022-10-01T01:58:01.480Z,16.40
2022-10-01T02:00:28.705Z,16.68
2022-10-01T02:03:00.720Z,17.20
2022-10-01T02:05:45.129Z,16.85
2022-10-01T02:07:16.666Z,15.65
2022-10-01T02:13:32.612Z,19.80
2022-10-01T02:16:16.153Z,22.35
2022-10-01T02:19:02.970Z,22.75
2022-10-01T02:21:50.653Z,25.35
2022-10-01T02:24:34.385Z,24.60
2022-10-01T02:25:47.616Z,22.45
2022-10-01T02:26:59.596Z,15.47
2022-10-01T02:28:13.029Z,12.83
2022-10-01T02:29:24.191Z,12.47
2022-10-01T02:30:38.584Z,12.18
2022-10-01T02:31:53.580Z,11.55
2022-10-01T02:34:24.770Z,12.18
2022-10-01T02:36:53.314Z,14.12
2022-10-01T02:38:06.564Z,17.15
2022-10-01T02:40:37.785Z,18.03
2022-10-01T02:43:08.617Z,18.87
2022-10-01T02:45:41.552Z,21.43
2022-10-01T02:48:12.535Z,21.40
2022-10-01T02:49:22.218Z,21.90
2022-10-01T02:55:00.891Z,23.40
2022-10-01T02:57:27.126Z,21.05
2022-10-01T02:58:36.305Z,20.95
2022-10-01T02:59:47.264Z,14.97
2022-10-01T03:02:12.937Z,14.02
2022-10-01T03:04:36.656Z,12.03
2022-10-01T03:07:03.280Z,13.06
2022-10-01T03:09:21.337Z,14.00
2022-10-01T03:10:31.080Z,15.72
2022-10-01T03:12:57.010Z,17.93
2022-10-01T03:14:07.167Z,19.22
2022-10-01T03:16:35.935Z,20.03
2022-10-01T03:17:45.878Z,21.32
2022-10-01T03:20:10.627Z,19.82
2022-10-01T03:22:35.739Z,20.35
2022-10-01T03:23:45.505Z,20.77
2022-10-01T03:24:54.732Z,20.13
2022-10-01T03:27:19.483Z,20.58
2022-10-01T03:29:45.290Z,19.50
2022-10-01T03:32:22.027Z,13.90
2022-10-01T03:34:47.134Z,12.47
2022-10-01T03:37:11.130Z,10.63
2022-10-01T03:38:20.162Z,9.95
2022-10-01T03:39:30.041Z,9.38
2022-10-01T03:40:39.105Z,8.95
2022-10-01T03:41:49.405Z,8.68
2022-10-01T03:42:59.040Z,9.33
2022-10-01T03:44:08.672Z,8.50
2022-10-01T03:46:32.587Z,8.02
2022-10-01T03:47:41.178Z,9.25
2022-10-01T03:48:50.850Z,7.75
2022-10-01T03:50:00.617Z,9.05
2022-10-01T03:51:10.458Z,9.75
2022-10-01T03:52:20.352Z,7.10
2022-10-01T03:53:31.121Z,7.70
2022-10-01T03:55:51.320Z,6.82
2022-10-01T03:58:16.487Z,6.08
2022-10-01T03:59:29.000Z,6.35
2022-10-01T04:00:37.965Z,6.85
2022-10-01T04:03:04.029Z,7.13
2022-10-01T04:05:27.888Z,6.12
2022-10-01T04:06:38.031Z,7.42
2022-10-01T04:07:49.060Z,6.90
2022-10-01T04:08:59.125Z,6.05
2022-10-01T04:10:09.827Z,5.45
2022-10-01T04:11:18.495Z,5.87
2022-10-01T04:12:28.814Z,6.62
2022-10-01T04:14:54.906Z,7.00
2022-10-01T04:16:06.324Z,5.73
2022-10-01T04:18:32.216Z,6.17
2022-10-01T04:20:50.966Z,6.50
2022-10-01T04:23:15.108Z,7.33
2022-10-01T04:24:25.000Z,9.40
2022-10-01T04:25:34.932Z,8.80
2022-10-01T04:26:44.764Z,9.05
2022-10-01T04:27:57.747Z,11.18
2022-10-01T04:30:23.911Z,55.78
2022-10-01T04:32:51.399Z,11.88
2022-10-01T04:34:01.572Z,10.42
2022-10-01T04:35:12.064Z,10.45
2022-10-01T04:36:24.215Z,10.68
2022-10-01T04:37:33.878Z,10.62
2022-10-01T04:39:58.985Z,11.07
2022-10-01T04:41:09.264Z,11.83
2022-10-01T04:43:33.924Z,14.98
2022-10-01T04:45:58.057Z,13.15
2022-10-01T04:48:24.494Z,11.75
2022-10-01T04:49:34.061Z,10.83
2022-10-01T04:50:43.699Z,12.95
2022-10-01T04:51:53.524Z,9.55
2022-10-01T04:53:03.430Z,7.95
2022-10-01T04:55:28.436Z,8.28
2022-10-01T04:56:38.939Z,8.00
2022-10-01T04:57:49.507Z,7.22
2022-10-01T05:00:16.929Z,9.23
2022-10-01T05:02:46.332Z,9.47
2022-10-01T05:03:54.952Z,9.98
2022-10-01T05:05:05.870Z,11.10
2022-10-01T05:06:15.932Z,11.00
2022-10-01T05:07:25.125Z,11.50
2022-10-01T05:09:52.170Z,11.70
2022-10-01T05:11:01.328Z,12.35
2022-10-01T05:13:27.317Z,11.80
2022-10-01T05:14:37.094Z,12.82
2022-10-01T05:17:07.370Z,13.13
2022-10-01T05:18:17.042Z,10.12
2022-10-01T05:20:43.743Z,9.00
2022-10-01T05:23:11.298Z,9.62
2022-10-01T05:24:22.057Z,9.83
2022-10-01T05:25:32.753Z,10.15
2022-10-01T05:26:42.168Z,10.50
2022-10-01T05:27:52.451Z,10.55
2022-10-01T05:29:02.367Z,11.02
2022-10-01T05:31:28.439Z,10.30
2022-10-01T05:32:38.294Z,10.48
2022-10-01T05:33:47.954Z,10.58
2022-10-01T05:36:12.851Z,10.05
2022-10-01T05:37:22.483Z,13.33
2022-10-01T05:38:31.667Z,10.38
2022-10-01T05:40:55.220Z,29.65
2022-10-01T05:43:40.202Z,11.80
2022-10-01T05:46:25.150Z,16.08
2022-10-01T05:48:51.839Z,15.47
2022-10-01T05:51:17.924Z,12.83
2022-10-01T05:53:42.103Z,9.95
2022-10-01T05:56:07.739Z,12.70
2022-10-01T05:58:33.123Z,12.08
2022-10-01T06:00:56.589Z,13.98
2022-10-01T06:03:21.616Z,16.05
2022-10-01T06:05:46.131Z,18.90
2022-10-01T06:08:12.541Z,17.13
2022-10-01T06:09:22.729Z,17.46
2022-10-01T06:11:49.524Z,15.98
2022-10-01T06:14:20.683Z,14.52
2022-10-01T06:15:34.701Z,13.60
2022-10-01T06:18:05.686Z,15.45
2022-10-01T06:20:30.404Z,14.63
2022-10-01T06:22:56.771Z,9.68
2022-10-01T06:24:06.703Z,9.52
2022-10-01T06:25:16.383Z,9.53
2022-10-01T06:27:40.955Z,9.10
2022-10-01T06:28:51.129Z,11.62
2022-10-01T06:31:21.600Z,11.33
2022-10-01T06:32:34.144Z,9.62
2022-10-01T06:34:56.642Z,7.20
2022-10-01T06:36:06.160Z,9.68
2022-10-01T06:37:16.609Z,6.60
2022-10-01T06:38:26.519Z,6.52
2022-10-01T06:42:08.322Z,6.50
2022-10-01T06:44:31.725Z,5.97
2022-10-01T06:46:56.868Z,6.05
2022-10-01T06:48:07.465Z,5.62
2022-10-01T06:50:34.344Z,6.33
2022-10-01T06:53:41.500Z,5.97
2022-10-01T06:56:07.534Z,7.70
2022-10-01T06:58:50.461Z,7.28
2022-10-01T06:59:59.655Z,6.47
2022-10-01T07:01:10.265Z,5.95
2022-10-01T07:03:43.320Z,6.45
2022-10-01T07:06:08.500Z,7.20
2022-10-01T07:07:18.402Z,7.20
2022-10-01T07:08:28.265Z,10.45
2022-10-01T07:10:52.718Z,5.75
2022-10-01T07:13:20.669Z,6.12
2022-10-01T07:14:29.953Z,5.40
2022-10-01T07:15:40.304Z,5.87
2022-10-01T07:16:49.208Z,7.05
2022-10-01T07:17:58.942Z,6.70
2022-10-01T07:20:22.427Z,6.58
2022-10-01T07:23:09.834Z,4.10
2022-10-01T07:25:34.282Z,7.32
2022-10-01T07:28:02.351Z,3.58
2022-10-01T07:30:26.820Z,5.80
2022-10-01T07:32:50.726Z,3.88
2022-10-01T07:33:59.935Z,3.65
2022-10-01T07:35:10.010Z,3.25
2022-10-01T07:36:20.109Z,5.65
2022-10-01T07:37:30.605Z,5.30
2022-10-01T07:39:54.668Z,3.78
2022-10-01T07:41:04.447Z,5.70
2022-10-01T07:42:14.970Z,4.80
2022-10-01T07:43:24.804Z,3.75
2022-10-01T07:46:00.705Z,3.93
2022-10-01T07:47:10.496Z,2.50
2022-10-01T07:49:34.841Z,3.38
2022-10-01T07:50:47.654Z,2.45
2022-10-01T07:51:58.545Z,2.83
2022-10-01T07:53:08.136Z,2.55
2022-10-01T07:54:19.034Z,2.55
2022-10-01T07:56:44.942Z,4.15
2022-10-01T07:59:10.819Z,2.22
2022-10-01T08:01:36.615Z,2.12
2022-10-01T08:05:19.823Z,2.30
2022-10-01T08:07:46.258Z,2.02
2022-10-01T08:08:55.439Z,2.60
2022-10-01T08:10:06.202Z,3.50
2022-10-01T08:11:17.628Z,3.90
2022-10-01T08:13:47.009Z,2.97
2022-10-01T08:14:56.092Z,2.50
2022-10-01T08:17:28.582Z,1.88
2022-10-01T08:19:51.552Z,2.78
2022-10-01T08:21:03.065Z,2.45
2022-10-01T08:23:38.521Z,3.62
2022-10-01T08:26:56.763Z,4.05
2022-10-01T08:30:23.955Z,1.85
2022-10-01T08:33:20.866Z,3.83
2022-10-01T08:36:00.070Z,1.67
2022-10-01T08:38:25.661Z,1.83
2022-10-01T08:39:36.691Z,3.80
2022-10-01T08:43:45.457Z,4.23
2022-10-01T08:46:21.646Z,2.93
2022-10-01T08:49:38.959Z,3.10
2022-10-01T08:52:26.055Z,1.80
2022-10-01T08:55:18.158Z,3.32
2022-10-01T08:56:34.576Z,1.75
2022-10-01T08:58:02.217Z,3.52
2022-10-01T09:00:57.409Z,2.15
2022-10-01T09:03:43.758Z,2.38
2022-10-01T09:06:40.192Z,3.43
2022-10-01T09:09:35.961Z,3.00
2022-10-01T09:12:34.062Z,2.78
2022-10-01T09:14:16.675Z,3.20
2022-10-01T09:17:14.132Z,5.75
2022-10-01T09:20:06.876Z,2.00
2022-10-01T09:22:42.196Z,2.33
2022-10-01T09:25:26.391Z,2.00
2022-10-01T09:26:39.057Z,2.35
2022-10-01T09:27:49.481Z,2.65
2022-10-01T09:29:02.008Z,1.65
2022-10-01T09:31:35.765Z,17.13
2022-10-01T09:34:17.310Z,9.72
2022-10-01T09:36:57.978Z,1.35
2022-10-01T09:41:45.808Z,1.03
2022-10-01T09:42:55.558Z,1.60
2022-10-01T09:44:06.142Z,1.62
2022-10-01T09:45:18.238Z,2.03
2022-10-01T09:47:45.903Z,2.32
2022-10-01T09:48:58.627Z,1.05
2022-10-01T09:51:40.667Z,2.20
2022-10-01T09:52:51.378Z,1.97
2022-10-01T09:54:15.008Z,2.35
2022-10-01T09:55:30.300Z,1.35
2022-10-01T09:58:27.327Z,1.88
2022-10-01T10:01:01.475Z,1.65
2022-10-01T10:03:43.043Z,1.55
2022-10-01T10:06:16.500Z,2.43
2022-10-01T10:07:25.348Z,3.92
2022-10-01T10:08:39.175Z,2.55
2022-10-01T10:09:48.663Z,3.33
2022-10-01T10:12:30.438Z,2.25
2022-10-01T10:13:42.537Z,1.25
2022-10-01T10:16:10.308Z,1.33
2022-10-01T10:17:21.684Z,2.90
2022-10-01T10:19:54.172Z,1.22
2022-10-01T10:22:30.991Z,4.08
2022-10-01T10:25:24.678Z,2.52
2022-10-01T10:26:38.610Z,3.73
2022-10-01T10:29:15.634Z,5.72
2022-10-01T10:31:43.457Z,1.73
2022-10-01T10:34:18.535Z,3.90
2022-10-01T10:36:46.270Z,1.82
2022-10-01T10:39:21.548Z,2.60
2022-10-01T10:41:51.881Z,1.98
2022-10-01T10:43:01.252Z,3.23
2022-10-01T10:45:39.194Z,4.17
2022-10-01T10:46:50.519Z,1.95
2022-10-01T10:48:01.188Z,3.72
2022-10-01T10:51:58.574Z,4.33
2022-10-01T10:54:48.108Z,1.97
2022-10-01T10:57:29.408Z,1.22
2022-10-01T10:59:57.433Z,2.07
2022-10-01T11:02:29.858Z,2.90
2022-10-01T11:05:22.519Z,2.42
2022-10-01T11:07:50.714Z,1.57
2022-10-01T11:10:49.360Z,3.77
2022-10-01T11:13:51.376Z,2.43
2022-10-01T11:15:08.669Z,3.25
2022-10-01T11:18:08.726Z,1.50
2022-10-01T11:21:18.470Z,1.40
2022-10-01T11:24:15.155Z,1.92
2022-10-01T11:25:34.997Z,1.35
2022-10-01T11:30:07.997Z,2.17
2022-10-01T11:33:03.267Z,2.55
2022-10-01T11:34:21.793Z,2.67
2022-10-01T11:35:50.266Z,2.48
2022-10-01T11:37:15.607Z,1.50
2022-10-01T11:38:45.825Z,2.18
2022-10-01T11:39:58.711Z,4.90
2022-10-01T11:42:41.064Z,3.38
2022-10-01T11:43:56.030Z,4.78
2022-10-01T11:46:55.893Z,1.80
2022-10-01T11:51:01.097Z,2.43
2022-10-01T11:52:28.718Z,3.03
2022-10-01T11:55:49.285Z,3.50
2022-10-01T11:58:53.477Z,4.58
2022-10-01T12:00:09.344Z,1.80
2022-10-01T12:04:34.384Z,2.53
2022-10-01T12:05:45.009Z,2.93
2022-10-01T12:08:25.644Z,2.55
2022-10-01T12:11:02.805Z,2.40
2022-10-01T12:13:51.563Z,2.08
2022-10-01T12:16:50.017Z,6.27
2022-10-01T12:19:25.662Z,3.47
2022-10-01T12:22:09.462Z,1.90
2022-10-01T12:24:59.351Z,3.10
2022-10-01T12:26:40.433Z,2.53
2022-10-01T12:29:29.266Z,7.25
2022-10-01T12:32:05.048Z,2.02
2022-10-01T12:34:57.253Z,2.55
2022-10-01T12:38:11.864Z,2.95
2022-10-01T12:41:15.912Z,3.25
2022-10-01T12:42:40.372Z,4.73
2022-10-01T12:44:10.262Z,3.87
2022-10-01T12:47:01.836Z,6.48
2022-10-01T12:49:56.082Z,3.43
2022-10-01T12:51:34.827Z,6.57
2022-10-01T12:53:05.610Z,5.22
2022-10-01T12:56:18.535Z,4.88
2022-10-01T12:59:14.043Z,4.75
2022-10-01T13:03:23.795Z,3.00
2022-10-01T13:06:21.423Z,3.33
2022-10-01T13:09:02.436Z,3.27
2022-10-01T13:12:02.626Z,3.80
2022-10-01T13:14:46.947Z,4.02
2022-10-01T13:17:39.278Z,4.30
2022-10-01T13:20:10.693Z,4.40
2022-10-01T13:22:53.881Z,3.70
2022-10-01T13:26:08.218Z,3.78
2022-10-01T13:29:03.986Z,3.98
2022-10-01T13:32:01.657Z,3.90
2022-10-01T13:33:27.296Z,4.67
2022-10-01T13:34:39.870Z,3.73
2022-10-01T13:37:19.758Z,4.33
2022-10-01T13:40:00.884Z,4.12
2022-10-01T13:42:46.752Z,24.32
2022-10-01T13:45:29.765Z,6.17
2022-10-01T13:48:12.404Z,4.97
2022-10-01T13:51:03.582Z,6.32
2022-10-01T13:53:46.634Z,5.13
2022-10-01T13:54:58.618Z,4.30
2022-10-01T13:57:36.501Z,5.60
2022-10-01T13:58:46.383Z,30.35
2022-10-01T14:01:24.246Z,7.87
2022-10-01T14:03:54.600Z,5.68
2022-10-01T14:09:48.226Z,4.57
2022-10-01T14:11:31.859Z,4.80
2022-10-01T14:13:03.145Z,4.57
2022-10-01T14:16:01.018Z,4.83
2022-10-01T14:17:10.721Z,4.25
2022-10-01T14:18:23.122Z,4.60
2022-10-01T14:19:33.416Z,6.78
2022-10-01T14:22:15.783Z,10.10
2022-10-01T14:23:46.229Z,10.53
2022-10-01T14:25:08.026Z,9.30
2022-10-01T14:27:52.205Z,8.95
2022-10-01T14:30:27.616Z,9.83
2022-10-01T14:33:28.466Z,7.50
2022-10-01T14:37:39.085Z,5.12
2022-10-01T14:38:49.006Z,5.40
2022-10-01T14:41:23.998Z,6.08
2022-10-01T14:42:32.705Z,7.03
2022-10-01T14:44:56.294Z,7.35
2022-10-01T14:47:27.418Z,6.35
2022-10-01T14:48:41.188Z,7.23
2022-10-01T14:49:51.127Z,7.08
2022-10-01T14:52:27.519Z,7.10
2022-10-01T14:53:39.174Z,8.10
2022-10-01T14:56:11.530Z,10.00
2022-10-01T14:58:57.182Z,7.97
2022-10-01T15:01:26.827Z,4.82
2022-10-01T15:04:02.642Z,5.25
2022-10-01T15:06:45.513Z,5.62
2022-10-01T15:09:16.406Z,5.18
2022-10-01T15:11:46.980Z,6.65
2022-10-01T15:14:14.943Z,5.23
2022-10-01T15:16:46.386Z,7.30
2022-10-01T15:17:55.641Z,9.45
2022-10-01T15:20:28.087Z,12.40
2022-10-01T15:23:25.237Z,10.27
2022-10-01T15:26:00.604Z,7.78
2022-10-01T15:27:13.273Z,12.48
2022-10-01T15:29:53.945Z,15.88
2022-10-01T15:32:22.783Z,9.38
2022-10-01T15:34:52.732Z,10.37
2022-10-01T15:38:46.983Z,7.12
2022-10-01T15:42:34.619Z,8.58
2022-10-01T15:45:21.692Z,11.92
2022-10-01T15:47:51.803Z,9.92
2022-10-01T15:50:37.200Z,10.20
2022-10-01T15:53:36.973Z,10.02
2022-10-01T15:56:25.736Z,17.85
2022-10-01T15:58:56.451Z,18.40
2022-10-01T16:01:28.498Z,17.75
2022-10-01T16:04:08.815Z,16.42
2022-10-01T16:06:50.061Z,21.90
2022-10-01T16:09:21.873Z,20.82
2022-10-01T16:12:07.295Z,24.90
2022-10-01T16:14:58.274Z,15.97
2022-10-01T16:17:40.282Z,14.47
2022-10-01T16:20:19.878Z,14.90
2022-10-01T16:22:44.391Z,12.38
2022-10-01T16:25:26.313Z,12.32
2022-10-01T16:28:00.604Z,12.07
2022-10-01T16:30:34.279Z,10.28
2022-10-01T16:33:04.117Z,6.85
2022-10-01T16:35:32.450Z,6.95
2022-10-01T16:37:57.758Z,5.60
2022-10-01T16:42:01.471Z,6.50
2022-10-01T16:44:26.482Z,8.50
2022-10-01T16:46:56.217Z,9.53
2022-10-01T16:49:35.445Z,6.10
2022-10-01T16:52:01.883Z,7.23
2022-10-01T16:54:29.386Z,14.92
2022-10-01T16:56:54.805Z,12.08
2022-10-01T16:59:24.125Z,10.72
2022-10-01T17:01:57.842Z,14.30
2022-10-01T17:04:33.638Z,9.75
2022-10-01T17:05:43.160Z,8.80
2022-10-01T17:06:53.784Z,7.45
2022-10-01T17:10:53.494Z,10.18
2022-10-01T17:13:16.990Z,10.87
2022-10-01T17:15:42.714Z,9.70
2022-10-01T17:18:11.339Z,6.70
2022-10-01T17:20:37.729Z,5.58
2022-10-01T17:23:03.099Z,5.68
2022-10-01T17:25:36.182Z,7.27
2022-10-01T17:28:06.397Z,5.68
2022-10-01T17:30:32.673Z,5.45
2022-10-01T17:33:00.657Z,6.57
2022-10-01T17:35:24.082Z,5.43
2022-10-01T17:37:49.978Z,8.70
2022-10-01T17:40:16.044Z,6.57
2022-10-01T17:42:39.879Z,4.70
2022-10-01T17:45:06.698Z,5.30
2022-10-01T17:47:34.103Z,4.70
2022-10-01T17:49:57.613Z,5.20
2022-10-01T17:51:09.573Z,4.45
2022-10-01T17:52:18.574Z,4.48
2022-10-01T17:54:42.287Z,4.85
2022-10-01T17:57:09.795Z,3.82
2022-10-01T17:58:26.379Z,4.97
2022-10-01T18:00:51.677Z,7.78
2022-10-01T18:03:17.921Z,6.38
2022-10-01T18:05:41.724Z,6.47
2022-10-01T18:08:09.743Z,4.22
2022-10-01T18:09:19.875Z,4.10
2022-10-01T18:10:38.709Z,6.25
2022-10-01T18:11:49.606Z,4.15
2022-10-01T18:14:13.124Z,4.85
2022-10-01T18:16:39.113Z,4.47
2022-10-01T18:21:37.664Z,6.33
2022-10-01T18:24:04.853Z,4.97
2022-10-01T18:26:29.280Z,6.08
2022-10-01T18:28:53.598Z,5.32
2022-10-01T18:31:21.569Z,5.38
2022-10-01T18:33:58.994Z,5.43
2022-10-01T18:37:05.570Z,42.22
2022-10-01T18:39:47.201Z,6.83
2022-10-01T18:43:42.441Z,7.60
2022-10-01T18:46:35.807Z,6.25
2022-10-01T18:49:22.034Z,6.58
2022-10-01T18:52:03.174Z,6.58
2022-10-01T18:55:03.978Z,9.28
2022-10-01T18:58:04.034Z,10.70
2022-10-01T19:01:04.276Z,8.20
2022-10-01T19:04:14.586Z,10.70
2022-10-01T19:07:29.603Z,5.55
2022-10-01T19:08:43.276Z,8.65
2022-10-01T19:11:52.407Z,8.27
2022-10-01T19:14:49.900Z,5.45
2022-10-01T19:19:43.698Z,5.33
2022-10-01T19:23:50.220Z,5.32
2022-10-01T19:25:06.966Z,4.10
2022-10-01T19:27:55.168Z,4.85
2022-10-01T19:32:03.753Z,5.68
2022-10-01T19:34:50.580Z,5.48
2022-10-01T19:36:00.406Z,7.00
2022-10-01T19:38:39.425Z,7.55
2022-10-01T19:41:25.287Z,9.02
2022-10-01T19:44:02.647Z,47.10
2022-10-01T19:47:09.370Z,17.45
2022-10-01T19:49:59.605Z,8.35
2022-10-01T19:52:31.482Z,11.38
2022-10-01T19:55:01.893Z,9.12
2022-10-01T19:57:35.698Z,8.08
2022-10-01T20:00:10.968Z,9.87
2022-10-01T20:03:03.479Z,8.80
2022-10-01T20:05:41.330Z,6.92
2022-10-01T20:08:18.535Z,7.95
2022-10-01T20:10:59.451Z,9.47
2022-10-01T20:12:30.706Z,9.80
2022-10-01T20:15:27.208Z,9.98
2022-10-01T20:18:25.756Z,7.18
2022-10-01T20:21:37.794Z,8.67
2022-10-01T20:24:29.803Z,6.98
2022-10-01T20:27:07.644Z,8.02
2022-10-01T20:31:24.604Z,6.75
2022-10-01T20:34:14.440Z,7.32
2022-10-01T20:37:17.453Z,7.30
2022-10-01T20:41:17.854Z,7.75
2022-10-01T20:44:01.765Z,7.55
2022-10-01T20:45:26.645Z,9.28
2022-10-01T20:48:13.998Z,7.23
2022-10-01T20:51:07.297Z,5.85
2022-10-01T20:53:54.583Z,7.85
2022-10-01T20:56:32.492Z,9.10
2022-10-01T20:59:43.772Z,7.10
2022-10-01T21:02:43.347Z,8.07
2022-10-01T21:05:35.217Z,10.37
2022-10-01T21:08:04.400Z,9.62
2022-10-01T21:10:44.851Z,9.55
2022-10-01T21:12:04.264Z,7.78
2022-10-01T21:13:32.279Z,8.98
2022-10-01T21:16:16.114Z,8.18
2022-10-01T21:17:32.506Z,9.25
2022-10-01T21:19:05.386Z,6.67
2022-10-01T21:22:23.873Z,9.72
2022-10-01T21:23:57.412Z,7.52
2022-10-01T21:26:45.160Z,6.48
2022-10-01T21:29:21.495Z,11.57
2022-10-01T21:32:30.654Z,12.93
2022-10-01T21:35:53.240Z,8.07
2022-10-01T21:38:49.014Z,7.48
2022-10-01T21:41:39.550Z,5.85
2022-10-01T21:44:47.102Z,6.40
2022-10-01T21:47:53.483Z,5.35
2022-10-01T21:49:18.346Z,6.25
2022-10-01T21:52:08.906Z,6.05
2022-10-01T21:56:27.127Z,8.57
2022-10-01T21:58:09.116Z,8.07
2022-10-01T22:00:37.418Z,7.90
2022-10-01T22:03:22.515Z,7.30
2022-10-01T22:09:31.629Z,7.60
2022-10-01T22:12:07.095Z,6.40
2022-10-01T22:14:44.167Z,4.17
2022-10-01T22:17:33.186Z,4.10
2022-10-01T22:20:10.526Z,6.25
2022-10-01T22:22:47.930Z,5.43
2022-10-01T22:25:19.670Z,6.42
2022-10-01T22:27:51.089Z,5.55
2022-10-01T22:30:20.952Z,6.62
2022-10-01T22:31:34.255Z,5.85
2022-10-01T22:35:05.119Z,6.35
2022-10-01T22:37:50.863Z,7.05
2022-10-01T22:39:07.253Z,6.05
2022-10-01T22:41:48.292Z,5.92
2022-10-01T22:43:13.810Z,5.40
2022-10-01T22:44:24.626Z,6.18
2022-10-01T22:47:03.415Z,5.18
2022-10-01T22:49:59.460Z,7.80
2022-10-01T22:51:28.219Z,10.30
2022-10-01T22:52:52.605Z,7.13
2022-10-01T22:54:30.743Z,8.53
2022-10-01T22:57:26.584Z,11.32
2022-10-01T23:00:04.100Z,5.15
2022-10-01T23:02:43.259Z,5.75
2022-10-01T23:05:53.049Z,5.98
2022-10-01T23:07:08.572Z,6.05
2022-10-01T23:08:27.960Z,4.87
2022-10-01T23:11:20.257Z,9.30
2022-10-01T23:14:05.411Z,6.47
2022-10-01T23:16:53.312Z,6.33
2022-10-01T23:18:18.764Z,5.93
2022-10-01T23:19:49.032Z,8.02
2022-10-01T23:22:50.754Z,8.10
2022-10-01T23:25:30.788Z,5.33
2022-10-01T23:28:19.728Z,5.75
2022-10-01T23:32:45.166Z,4.10
2022-10-01T23:35:50.205Z,5.43
2022-10-01T23:38:33.782Z,8.05
2022-10-01T23:39:50.128Z,8.22
2022-10-01T23:42:54.900Z,5.68
2022-10-01T23:45:48.977Z,5.92
2022-10-01T23:48:19.730Z,9.62
2022-10-01T23:49:33.598Z,6.15
2022-10-01T23:52:21.844Z,4.67
2022-10-01T23:56:12.854Z,4.05
2022-10-01T23:59:13.077Z,4.60
